KITH/ITH METAR and TAF weather

Enter ICAO airport designator
Station Type Date Time Source
KITH METAR 2019/04/19 07:56 UTC NOAA

KITH 190756Z AUTO 15010KT 10SM CLR 17/11 A2964 RMK AO2 SLP033 T01720111


Station Type Date Time Source
KITH Decoded METAR 2019/04/19 07:56 UTC NOAA

Ithaca, Ithaca Tompkins Regional Airport, NY, United States (KITH) 42-29-27N 076-27-30W
Apr 19, 2019 - 03:56 AM EDT / 2019.04.19 0756 UTC
Wind: from the SSE (150 degrees) at 12 MPH (10 KT):0
Visibility: 10 mile(s):0
Sky conditions: clear
Temperature: 63.0 F (17.2 C)
Dew Point: 52.0 F (11.1 C)
Relative Humidity: 67%
Pressure (altimeter): 29.64 in. Hg (1003 hPa)
ob: KITH 190756Z AUTO 15010KT 10SM CLR 17/11 A2964 RMK AO2 SLP033 T01720111
cycle: 8

Station Type Date Time Source
KITH TAF 2019/04/19 06:27 UTC NOAA

TAF KITH 190524Z 1906/2006 16010KT P6SM BKN120 WS020/21050KT
FM191400 18012G20KT P6SM OVC035
FM192100 17010KT 6SM -SHRA BR OVC022
FM192300 18008KT 4SM -SHRA BR OVC017
TEMPO 2001/2005 2SM -TSRA BR OVC030CB

Example: see airport list